Thermal, CA

10:43 AM PDT on October 25, 2014 (GMT -0700)
Imperial County | Change Station
CLOSE
Current Station
Airport
Location: Imperial,
Elevation: -56 ft
Nearby Weather Stations

Elev -56 ft 32.83 °N, 115.58 °W | Updated 50 minutes ago

Clear
Clear
83 °F
Feels Like 83 °F
N
4
Wind Variable Wind from WNW

Today
High -- | Low -- °F
--% Chance of Precip.
Yesterday
High -- | Low -- °F
Precip. -- in
6:57 AM 5:59 PM
Waxing Crescent, 4% visible
Pressure 29.97 in
Visibility 10.0 miles
Clouds Few 11000 ft
Dew Point 49 °F
Humidity 31%
Rainfall 0.00 in
Snow Depth Not available.
UV 3 out of 12
Pollen 3.90 out of 12
Ozone Good
Flu Activity Sporadic
METAR KIPL 251653Z AUTO 30003KT 10SM FEW110 28/09 A2997 RMK AO2 SLP148 T02830094

More Conditions Fewer Conditions

Pressure 29.97 in
Visibility 10.0 miles
Clouds Few 11000 ft
Dew Point 49 °F
Humidity 31%
Rainfall 0.00 in
Snow Depth Not available.
UV 3 out of 12
Pollen 3.90 out of 12
Ozone Good
Flu Activity Sporadic
METAR KIPL 251653Z AUTO 30003KT 10SM FEW110 28/09 A2997 RMK AO2 SLP148 T02830094

More Conditions Fewer Conditions

10-Day Weather Forecast

Almanac

Astronomy

Oct. 25, 2014 Rise Set
Actual Time 6:57 AM PDT 5:59 PM PDT
Civil Twilight 6:31 AM PDT 6:24 PM PDT
Nautical Twilight 6:02 AM PDT 6:53 PM PDT
Astronomical Twilight 5:33 AM PDT 7:22 PM PDT
Moon 8:36 AM PDT 7:30 PM PDT
Length of Visible Light 11h 52m
Length of Day
11h 02m
Tomorrow will be 1m 53s shorter.
Waxing Crescent, 4% of the Moon is Illuminated
Today
Waxing Crescent
Oct 30
First Quarter
Nov 6
Full
Nov 14
Last Quarter
Nov 22
New

Today's Extremes

State Highs State Lows

Community

WunderPhotos

Upload Photos

1,764,919 photos uploaded!

Nearby

Air Quality

  Air Quality AQ Index Pollutant
Yesterday Moderate
OZONE
Yesterday Good
PM10
Current Good
OZONE
Sunday Good
PM10
Sunday Moderate
OZONE
Sunday Good
CO
Sunday Good
NO2

Snow Depth

Station Depth Elevation
Virginia Lakes Ridge 0 in 9200 ft
Leavitt Lake 1 in 9400 ft
Leavitt Meadows 0 in 7200 ft
Sonora Pass 0 in 8800 ft
Summit Meadow 1 in 9122 ft

Earthquake Activity

City Distance Mag. Time & Date
Running Springs, California 76 miles 3.1 4:07 AM PDT
2014-10-25
Maneadero, Mexico 126 miles 2.5 7:44 AM PDT
2014-10-24
Brea, California 107 miles 2.9 3:35 PM PDT
2014-10-23
Brea, California 107 miles 2.8 3:34 PM PDT
2014-10-23
Minimum magnitude displayed is 2.5.

Coastal Water Temperatures

Place Temperature
No Stations Reporting

Nearby Weather Stations